Time;durP1;ratioP1;P1;durP2;ratioP2;P2;SDS_P1;SDS_P2;PMS_P1;PMS_P2;Temp;Humidity;BMP_temperature;BMP_pressure;BME280_temperature;BME280_humidity;BME280_pressure;Samples;Min_cycle;Max_cycle;Signal;HPM_P1;HPM_P2
2022/02/14 00:00:20;;;;;;;;;;;;;;;-2.79;50.75;101948.02;117386;1185;21825;-57
2022/02/14 00:02:48;;;;;;;;;;;;;;;-2.78;50.89;101949.85;117350;1182;21831;-53
2022/02/14 00:05:16;;;;;;;;;;;;;;;-2.77;50.75;101947.02;117454;1186;21835;-57
2022/02/14 00:07:45;;;;;;;;;;;;;;;-2.75;50.72;101944.05;117356;1186;21848;-57
2022/02/14 00:10:24;;;;;;;;;;;;;;;-2.74;50.77;101946.70;117312;1188;23422;-53
2022/02/14 00:12:53;;;;;;;;;;;;;;;-2.72;50.70;101943.73;117349;1183;22908;-53
2022/02/14 00:15:30;;;;;;;;;;;;;;;-2.70;50.77;101939.55;117323;1183;21845;-57
2022/02/14 00:17:58;;;;;;;;;;;;;;;-2.70;50.81;101937.65;117285;1186;21839;-54
2022/02/14 00:20:46;;;;;;;;;;;;;;;-2.72;50.69;101932.77;117362;1186;22980;-58
2022/02/14 00:23:15;;;;;;;;;;;;;;;-2.73;50.78;101930.61;117502;1186;21851;-57
2022/02/14 00:25:44;;;;;;;;;;;;;;;-2.76;50.70;101926.46;117384;1185;23448;-52
2022/02/14 00:28:12;;;;;;;;;;;;;;;-2.81;50.65;101924.05;117402;1183;21850;-52
2022/02/14 00:30:40;;;;;;;;;;;;;;;-2.87;50.63;101923.35;117385;1183;23563;-53
2022/02/14 00:33:08;;;;;;;;;;;;;;;-2.92;50.68;101920.09;117431;1182;24109;-54
2022/02/14 00:35:36;;;;;;;;;;;;;;;-2.98;50.60;101917.08;117346;1186;21836;-57
2022/02/14 00:38:04;;;;;;;;;;;;;;;-3.04;50.36;101913.94;117393;1183;22667;-57
2022/02/14 00:40:33;;;;;;;;;;;;;;;-3.07;50.57;101911.30;117395;1186;21833;-57
2022/02/14 00:43:02;;;;;;;;;;;;;;;-3.12;50.55;101910.98;117400;1185;23448;-55
2022/02/14 00:45:30;;;;;;;;;;;;;;;-3.17;50.54;101907.23;117356;1182;21812;-53
2022/02/14 00:47:59;;;;;;;;;;;;;;;-3.21;50.59;101904.84;117374;1185;21829;-53
2022/02/14 00:50:27;;;;;;;;;;;;;;;-3.26;50.55;101898.34;117389;1182;21829;-53
2022/02/14 00:52:55;;;;;;;;;;;;;;;-3.26;50.56;101892.52;117395;1182;21942;-53
2022/02/14 00:55:24;;;;;;;;;;;;;;;-3.24;50.68;101892.16;117432;1186;21838;-57
2022/02/14 00:57:52;;;;;;;;;;;;;;;-3.19;50.77;101891.47;117444;1186;24864;-58
2022/02/14 01:00:20;;;;;;;;;;;;;;;-3.14;50.70;101890.59;117490;1185;21836;-53
2022/02/14 01:02:48;;;;;;;;;;;;;;;-3.10;50.59;101892.91;117457;1186;21863;-53
2022/02/14 01:05:17;;;;;;;;;;;;;;;-3.08;50.69;101889.79;117401;1183;21836;-57
2022/02/14 01:07:45;;;;;;;;;;;;;;;-3.05;50.62;101891.70;117379;1186;21825;-54
2022/02/14 01:10:13;;;;;;;;;;;;;;;-3.04;50.75;101889.56;117346;1185;23493;-58
2022/02/14 01:12:41;;;;;;;;;;;;;;;-3.03;50.76;101889.98;117370;1183;23422;-57
2022/02/14 01:15:11;;;;;;;;;;;;;;;-3.01;50.81;101888.02;117360;1186;23432;-57
2022/02/14 01:17:39;;;;;;;;;;;;;;;-2.98;50.65;101888.88;117401;1186;23306;-57
2022/02/14 01:20:07;;;;;;;;;;;;;;;-2.97;50.83;101883.61;117391;1186;22941;-57
2022/02/14 01:22:36;;;;;;;;;;;;;;;-2.99;50.93;101879.96;117394;1185;22937;-52
2022/02/14 01:25:05;;;;;;;;;;;;;;;-2.99;50.82;101875.42;117347;1183;25038;-56
2022/02/14 01:27:33;;;;;;;;;;;;;;;-3.01;50.75;101874.31;117456;1186;21845;-57
2022/02/14 01:30:01;;;;;;;;;;;;;;;-3.00;50.91;101869.36;117410;1183;21848;-53
2022/02/14 01:32:30;;;;;;;;;;;;;;;-3.00;50.88;101865.44;117379;1180;21849;-57
2022/02/14 01:34:58;;;;;;;;;;;;;;;-2.98;51.00;101866.73;117398;1183;23413;-52
2022/02/14 01:37:26;;;;;;;;;;;;;;;-2.96;50.82;101863.64;117402;1184;21921;-57
2022/02/14 01:39:54;;;;;;;;;;;;;;;-2.94;50.78;101866.50;117432;1185;21876;-57
2022/02/14 01:42:23;;;;;;;;;;;;;;;-2.95;50.81;101866.94;117407;1185;21851;-57
2022/02/14 01:44:54;;;;;;;;;;;;;;;-2.96;50.81;101865.34;117332;1186;23878;-58
2022/02/14 01:47:23;;;;;;;;;;;;;;;-2.96;50.95;101865.84;117282;1181;21873;-53
2022/02/14 01:49:52;;;;;;;;;;;;;;;-3.00;50.88;101863.50;117399;1182;21907;-56
2022/02/14 01:52:23;;;;;;;;;;;;;;;-3.04;50.70;101859.16;117411;1183;22635;-51
2022/02/14 01:54:51;;;;;;;;;;;;;;;-3.07;50.75;101861.33;117382;1183;21838;-56
2022/02/14 01:57:23;;;;;;;;;;;;;;;-3.10;50.70;101859.11;117405;1185;21879;-53
2022/02/14 01:59:51;;;;;;;;;;;;;;;-3.12;50.75;101860.83;117301;1185;23437;-56
2022/02/14 02:02:20;;;;;;;;;;;;;;;-3.17;50.73;101857.58;117449;1183;21835;-52
2022/02/14 02:04:48;;;;;;;;;;;;;;;-3.20;50.69;101854.13;117377;1185;23346;-53
2022/02/14 02:07:16;;;;;;;;;;;;;;;-3.24;50.71;101850.05;117423;1185;21845;-53
2022/02/14 02:09:45;;;;;;;;;;;;;;;-3.27;50.69;101846.10;117363;1185;21851;-57
2022/02/14 02:12:25;;;;;;;;;;;;;;;-3.29;50.73;101841.14;117410;1182;23234;-56
2022/02/14 02:14:57;;;;;;;;;;;;;;;-3.30;50.76;101840.41;117338;1185;21838;-56
2022/02/14 02:17:33;;;;;;;;;;;;;;;-3.32;50.72;101840.61;117430;1185;24137;-56
2022/02/14 02:20:06;;;;;;;;;;;;;;;-3.34;50.82;101835.35;117331;1182;23630;-56
2022/02/14 02:22:34;;;;;;;;;;;;;;;-3.36;50.82;101836.77;117313;1186;21844;-56
2022/02/14 02:25:02;;;;;;;;;;;;;;;-3.38;50.83;101834.86;117365;1182;22796;-56
2022/02/14 02:27:31;;;;;;;;;;;;;;;-3.40;50.78;101835.44;117418;1185;23076;-53
2022/02/14 02:30:00;;;;;;;;;;;;;;;-3.41;50.93;101828.16;117450;1183;23540;-53
2022/02/14 02:32:29;;;;;;;;;;;;;;;-3.40;50.78;101831.80;117409;1186;21898;-52
2022/02/14 02:34:58;;;;;;;;;;;;;;;-3.41;50.90;101827.80;117434;1182;21876;-52
2022/02/14 02:37:26;;;;;;;;;;;;;;;-3.44;50.82;101829.19;117385;1181;21847;-53
2022/02/14 02:39:54;;;;;;;;;;;;;;;-3.48;50.75;101824.43;117329;1182;21851;-52
2022/02/14 02:42:22;;;;;;;;;;;;;;;-3.58;50.91;101824.13;117258;1186;21870;-58
2022/02/14 02:44:51;;;;;;;;;;;;;;;-3.62;50.87;101825.55;117361;1186;24140;-56
2022/02/14 02:47:20;;;;;;;;;;;;;;;-3.63;50.98;101828.21;117410;1186;23541;-53
2022/02/14 02:49:48;;;;;;;;;;;;;;;-3.65;51.08;101826.92;117200;1185;23419;-57
2022/02/14 02:52:17;;;;;;;;;;;;;;;-3.66;50.86;101830.07;117411;1185;23413;-52
2022/02/14 02:54:45;;;;;;;;;;;;;;;-3.68;50.92;101831.52;117404;1182;23439;-53
2022/02/14 02:57:14;;;;;;;;;;;;;;;-3.68;51.13;101829.58;117486;1183;22982;-58
2022/02/14 02:59:42;;;;;;;;;;;;;;;-3.70;50.98;101828.77;117351;1182;23540;-58
2022/02/14 03:02:10;;;;;;;;;;;;;;;-3.73;50.96;101824.63;117384;1182;23436;-58
2022/02/14 03:04:40;;;;;;;;;;;;;;;-3.76;51.02;101823.28;117392;1186;21837;-52
2022/02/14 03:07:08;;;;;;;;;;;;;;;-3.78;50.91;101822.73;117370;1186;21835;-53
2022/02/14 03:09:36;;;;;;;;;;;;;;;-3.81;50.94;101820.16;117405;1183;21826;-55
2022/02/14 03:12:05;;;;;;;;;;;;;;;-3.83;50.87;101824.27;117385;1185;21863;-57
2022/02/14 03:14:33;;;;;;;;;;;;;;;-3.85;51.04;101820.90;117404;1183;21845;-52
2022/02/14 03:17:01;;;;;;;;;;;;;;;-3.85;51.01;101822.60;117376;1183;21835;-57
2022/02/14 03:19:29;;;;;;;;;;;;;;;-3.88;50.96;101820.52;117435;1184;21867;-56
2022/02/14 03:21:57;;;;;;;;;;;;;;;-3.95;50.89;101820.88;117433;1182;21842;-57
2022/02/14 03:24:25;;;;;;;;;;;;;;;-3.99;50.86;101822.67;117456;1182;23445;-51
2022/02/14 03:26:54;;;;;;;;;;;;;;;-4.01;50.91;101823.19;117369;1186;21894;-51
2022/02/14 03:29:22;;;;;;;;;;;;;;;-4.06;50.79;101821.02;117474;1185;23037;-51
2022/02/14 03:31:50;;;;;;;;;;;;;;;-4.08;50.86;101822.93;117450;1185;24687;-51
2022/02/14 03:34:18;;;;;;;;;;;;;;;-4.13;50.91;101818.45;117436;1183;23436;-51
2022/02/14 03:36:47;;;;;;;;;;;;;;;-4.20;50.85;101815.71;117402;1183;21851;-51
2022/02/14 03:39:15;;;;;;;;;;;;;;;-4.29;50.63;101819.54;117318;1185;23416;-56
2022/02/14 03:41:43;;;;;;;;;;;;;;;-4.37;50.73;101819.14;117436;1183;23448;-53
2022/02/14 03:44:12;;;;;;;;;;;;;;;-4.43;50.67;101815.64;117382;1185;21835;-52
2022/02/14 03:46:40;;;;;;;;;;;;;;;-4.51;50.58;101819.77;117481;1186;21849;-51
2022/02/14 03:49:08;;;;;;;;;;;;;;;-4.54;50.69;101817.77;117433;1185;21836;-57
2022/02/14 03:51:37;;;;;;;;;;;;;;;-4.51;50.76;101817.00;117468;1185;21844;-52
2022/02/14 03:54:05;;;;;;;;;;;;;;;-4.51;50.71;101816.98;117423;1183;23554;-56
2022/02/14 03:56:33;;;;;;;;;;;;;;;-4.53;50.48;101808.96;117379;1183;21835;-56
2022/02/14 03:59:01;;;;;;;;;;;;;;;-4.56;50.55;101811.33;117430;1182;23523;-51
2022/02/14 04:01:29;;;;;;;;;;;;;;;-4.58;50.59;101810.82;117351;1182;21833;-51
2022/02/14 04:03:57;;;;;;;;;;;;;;;-4.62;50.66;101808.16;117398;1185;21835;-56
2022/02/14 04:06:25;;;;;;;;;;;;;;;-4.66;50.69;101805.98;117351;1185;23510;-56
2022/02/14 04:08:54;;;;;;;;;;;;;;;-4.70;50.61;101804.48;117324;1182;22603;-56
2022/02/14 04:11:22;;;;;;;;;;;;;;;-4.75;50.66;101812.02;117447;1186;21835;-56
2022/02/14 04:13:51;;;;;;;;;;;;;;;-4.76;50.47;101806.97;117439;1186;23547;-51
2022/02/14 04:16:19;;;;;;;;;;;;;;;-4.80;50.54;101803.63;117389;1182;23404;-52
2022/02/14 04:18:47;;;;;;;;;;;;;;;-4.85;50.77;101798.40;117352;1182;21845;-56
2022/02/14 04:21:15;;;;;;;;;;;;;;;-4.90;50.64;101798.77;117362;1183;22625;-56
2022/02/14 04:23:44;;;;;;;;;;;;;;;-4.95;50.67;101799.75;117283;1185;23416;-51
2022/02/14 04:26:12;;;;;;;;;;;;;;;-5.00;50.57;101799.79;117385;1183;24110;-52
2022/02/14 04:28:40;;;;;;;;;;;;;;;-5.05;50.41;101793.70;117328;1182;21897;-50
2022/02/14 04:31:08;;;;;;;;;;;;;;;-5.10;50.47;101793.52;117455;1183;23544;-52
2022/02/14 04:33:37;;;;;;;;;;;;;;;-5.14;50.53;101790.86;117400;1188;21838;-56
2022/02/14 04:36:05;;;;;;;;;;;;;;;-5.18;50.50;101793.29;117379;1185;23534;-56
2022/02/14 04:38:33;;;;;;;;;;;;;;;-5.22;50.60;101796.77;117386;1182;23977;-54
2022/02/14 04:41:01;;;;;;;;;;;;;;;-5.29;50.63;101794.75;117387;1182;21829;-50
2022/02/14 04:43:30;;;;;;;;;;;;;;;-5.33;50.46;101795.44;117391;1185;21838;-55
2022/02/14 04:45:58;;;;;;;;;;;;;;;-5.43;50.44;101798.13;117366;1185;21835;-51
2022/02/14 04:48:28;;;;;;;;;;;;;;;-5.53;50.53;101801.80;117355;1183;21842;-57
2022/02/14 04:50:56;;;;;;;;;;;;;;;-5.57;50.35;101801.04;117275;1185;21962;-56
2022/02/14 04:53:25;;;;;;;;;;;;;;;-5.56;50.49;101801.46;117399;1185;21873;-56
2022/02/14 04:55:53;;;;;;;;;;;;;;;-5.60;50.22;101802.34;117356;1185;21862;-56
2022/02/14 04:58:21;;;;;;;;;;;;;;;-5.61;50.36;101802.73;117469;1185;21838;-56
2022/02/14 05:00:50;;;;;;;;;;;;;;;-5.66;50.48;101804.97;117377;1185;21835;-51
2022/02/14 05:03:18;;;;;;;;;;;;;;;-5.65;50.64;101810.31;117469;1183;21844;-57
2022/02/14 05:05:46;;;;;;;;;;;;;;;-5.66;50.43;101808.56;117441;1186;21836;-57
2022/02/14 05:08:14;;;;;;;;;;;;;;;-5.70;50.60;101813.09;117363;1182;22912;-56
2022/02/14 05:10:42;;;;;;;;;;;;;;;-5.75;50.46;101814.00;117404;1183;23519;-51
2022/02/14 05:13:11;;;;;;;;;;;;;;;-5.84;50.28;101814.36;117366;1185;22794;-57
2022/02/14 05:15:39;;;;;;;;;;;;;;;-5.93;50.34;101821.89;117394;1186;21924;-52
2022/02/14 05:18:07;;;;;;;;;;;;;;;-5.98;50.50;101824.60;117380;1185;23045;-57
2022/02/14 05:20:36;;;;;;;;;;;;;;;-6.01;50.61;101825.55;117378;1183;22587;-57
2022/02/14 05:23:04;;;;;;;;;;;;;;;-5.99;50.60;101826.70;117356;1185;21841;-57
2022/02/14 05:25:32;;;;;;;;;;;;;;;-5.93;50.83;101824.63;117393;1185;23439;-51
2022/02/14 05:28:07;;;;;;;;;;;;;;;-5.76;50.57;101824.71;117380;1185;21844;-51
2022/02/14 05:30:36;;;;;;;;;;;;;;;-5.64;50.85;101828.67;117423;1186;21950;-56
2022/02/14 05:33:04;;;;;;;;;;;;;;;-5.56;50.98;101829.80;117381;1186;22908;-57
2022/02/14 05:35:32;;;;;;;;;;;;;;;-5.45;51.02;101833.38;117368;1185;24126;-57
2022/02/14 05:38:00;;;;;;;;;;;;;;;-5.42;50.65;101836.38;117448;1182;21845;-51
2022/02/14 05:40:29;;;;;;;;;;;;;;;-5.38;50.89;101840.73;117379;1186;21836;-56
2022/02/14 05:42:57;;;;;;;;;;;;;;;-5.37;50.70;101844.46;117465;1182;23457;-51
2022/02/14 05:45:26;;;;;;;;;;;;;;;-5.33;50.92;101839.09;117416;1185;22980;-50
2022/02/14 05:47:54;;;;;;;;;;;;;;;-5.28;50.86;101843.86;117331;1185;23544;-51
2022/02/14 05:50:22;;;;;;;;;;;;;;;-5.18;51.02;101848.23;117404;1182;23426;-58
2022/02/14 05:52:50;;;;;;;;;;;;;;;-5.06;51.19;101851.51;117316;1185;24137;-49
2022/02/14 05:55:19;;;;;;;;;;;;;;;-4.96;51.22;101854.33;117309;1185;21838;-56
2022/02/14 05:57:47;;;;;;;;;;;;;;;-4.86;51.24;101848.71;117352;1185;21839;-51
2022/02/14 06:00:15;;;;;;;;;;;;;;;-4.77;51.22;101852.96;117348;1186;24140;-57
2022/02/14 06:02:43;;;;;;;;;;;;;;;-4.69;51.32;101851.02;117411;1183;23511;-51
2022/02/14 06:05:11;;;;;;;;;;;;;;;-4.61;51.24;101855.12;117426;1182;23437;-57
2022/02/14 06:07:41;;;;;;;;;;;;;;;-4.53;51.26;101857.08;117422;1185;21838;-51
2022/02/14 06:10:10;;;;;;;;;;;;;;;-4.41;51.41;101857.79;117331;1183;21844;-51
2022/02/14 06:12:39;;;;;;;;;;;;;;;-4.28;51.44;101857.16;117357;1185;23414;-50
2022/02/14 06:15:07;;;;;;;;;;;;;;;-4.16;51.66;101854.57;117446;1182;21845;-50
2022/02/14 06:17:40;;;;;;;;;;;;;;;-3.98;51.71;101853.92;117396;1182;22811;-58
2022/02/14 06:20:08;;;;;;;;;;;;;;;-3.79;51.74;101851.88;117386;1185;23440;-57
2022/02/14 06:22:36;;;;;;;;;;;;;;;-3.56;52.05;101851.73;117390;1183;22782;-57
2022/02/14 06:25:05;;;;;;;;;;;;;;;-3.33;52.21;101848.11;117380;1183;23636;-57
2022/02/14 06:27:34;;;;;;;;;;;;;;;-3.10;52.32;101842.78;117413;1186;22480;-51
2022/02/14 06:30:03;;;;;;;;;;;;;;;-2.85;52.23;101842.70;117413;1183;22168;-57
2022/02/14 06:32:34;;;;;;;;;;;;;;;-2.60;52.44;101839.80;117365;1182;22635;-51
2022/02/14 06:35:04;;;;;;;;;;;;;;;-2.33;52.62;101838.42;117354;1186;23430;-57
2022/02/14 06:37:35;;;;;;;;;;;;;;;-2.10;52.52;101838.71;117282;1185;22050;-57
2022/02/14 06:40:04;;;;;;;;;;;;;;;-1.85;52.64;101835.06;119141;1183;21837;-58
2022/02/14 06:42:43;;;;;;;;;;;;;;;-1.57;52.85;101834.14;117392;1182;21845;-54
2022/02/14 06:45:10;;;;;;;;;;;;;;;-1.29;53.00;101840.30;117359;1182;23413;-52
2022/02/14 06:47:39;;;;;;;;;;;;;;;-1.00;52.91;101833.56;117370;1185;23414;-57
2022/02/14 06:50:08;;;;;;;;;;;;;;;-0.72;53.39;101832.23;117356;1185;23455;-57
2022/02/14 06:52:38;;;;;;;;;;;;;;;-0.43;53.59;101825.04;117315;1185;21835;-52
2022/02/14 06:55:06;;;;;;;;;;;;;;;-0.15;53.31;101820.39;117359;1183;23548;-53
2022/02/14 06:57:36;;;;;;;;;;;;;;;0.14;53.54;101820.70;117327;1185;23416;-57
2022/02/14 07:00:07;;;;;;;;;;;;;;;0.41;53.53;101821.95;117382;1183;21850;-57
2022/02/14 07:02:36;;;;;;;;;;;;;;;0.69;53.66;101817.52;117327;1185;22673;-57
2022/02/14 07:05:04;;;;;;;;;;;;;;;0.94;53.63;101815.13;117332;1185;23538;-57
2022/02/14 07:07:33;;;;;;;;;;;;;;;1.19;53.46;101815.14;117375;1185;22644;-52
2022/02/14 07:10:02;;;;;;;;;;;;;;;1.45;53.74;101812.24;117356;1185;22776;-57
2022/02/14 07:12:34;;;;;;;;;;;;;;;1.71;53.79;101808.29;117319;1182;21839;-55
2022/02/14 07:15:04;;;;;;;;;;;;;;;1.93;53.90;101807.04;117394;1185;21880;-53
2022/02/14 07:17:52;;;;;;;;;;;;;;;2.18;53.54;101806.27;117324;1185;22949;-57
2022/02/14 07:20:37;;;;;;;;;;;;;;;2.42;53.73;101803.55;117397;1186;21839;-57
2022/02/14 07:23:07;;;;;;;;;;;;;;;2.66;53.80;101801.78;117508;1185;23412;-54
2022/02/14 07:25:35;;;;;;;;;;;;;;;2.89;53.86;101799.79;117422;1185;23413;-55
2022/02/14 07:28:04;;;;;;;;;;;;;;;3.11;53.88;101797.55;117389;1182;23416;-58
2022/02/14 07:30:33;;;;;;;;;;;;;;;3.29;53.87;101796.03;117372;1183;21889;-55
2022/02/14 07:33:03;;;;;;;;;;;;;;;3.47;53.88;101790.33;117339;1185;21889;-55
2022/02/14 07:35:37;;;;;;;;;;;;;;;3.66;53.96;101793.16;117364;1182;24121;-57
2022/02/14 07:38:07;;;;;;;;;;;;;;;3.88;53.96;101789.29;117372;1185;21865;-57
2022/02/14 07:40:35;;;;;;;;;;;;;;;4.09;53.83;101785.04;117329;1185;21814;-55
2022/02/14 07:43:03;;;;;;;;;;;;;;;4.30;54.16;101784.39;117482;1183;21836;-55
2022/02/14 07:45:31;;;;;;;;;;;;;;;4.52;54.15;101783.47;117384;1182;21879;-55
2022/02/14 07:47:59;;;;;;;;;;;;;;;4.76;54.03;101781.12;117410;1185;22282;-54
2022/02/14 07:50:28;;;;;;;;;;;;;;;5.05;53.92;101776.69;117407;1183;23443;-58
2022/02/14 07:52:56;;;;;;;;;;;;;;;5.29;53.80;101780.95;117366;1183;22609;-58
2022/02/14 07:55:24;;;;;;;;;;;;;;;5.52;54.02;101776.62;117354;1186;23443;-57
2022/02/14 07:57:53;;;;;;;;;;;;;;;5.71;54.04;101772.67;117366;1182;24116;-55
2022/02/14 08:00:22;;;;;;;;;;;;;;;5.87;54.15;101773.48;117418;1182;22911;-58
2022/02/14 08:02:50;;;;;;;;;;;;;;;6.05;54.21;101767.77;117487;1182;22946;-57
2022/02/14 08:05:19;;;;;;;;;;;;;;;6.24;54.29;101764.45;117434;1183;21886;-58
2022/02/14 08:07:47;;;;;;;;;;;;;;;6.43;54.09;101761.14;117441;1182;22791;-58
2022/02/14 08:10:35;;;;;;;;;;;;;;;6.61;54.15;101760.20;117374;1182;24122;-57
2022/02/14 08:13:03;;;;;;;;;;;;;;;6.73;54.25;101757.92;117339;1185;24711;-56
2022/02/14 08:15:32;;;;;;;;;;;;;;;6.89;54.24;101756.38;117310;1183;22600;-57
2022/02/14 08:18:04;;;;;;;;;;;;;;;7.05;53.98;101756.44;118669;1185;21875;-56
2022/02/14 08:20:32;;;;;;;;;;;;;;;7.23;54.06;101756.33;118296;1185;23518;-54
2022/02/14 08:23:02;;;;;;;;;;;;;;;7.37;54.06;101750.19;117422;1185;21838;-55
2022/02/14 08:25:31;;;;;;;;;;;;;;;7.52;54.13;101753.66;117466;1183;23414;-55
2022/02/14 08:27:59;;;;;;;;;;;;;;;7.68;54.03;101753.67;117494;1185;23518;-56
2022/02/14 08:30:27;;;;;;;;;;;;;;;7.86;54.16;101757.38;117405;1185;22625;-56
2022/02/14 08:32:55;;;;;;;;;;;;;;;8.01;53.98;101756.26;117330;1185;21848;-56
2022/02/14 08:35:23;;;;;;;;;;;;;;;8.16;54.14;101760.95;117465;1186;24132;-56
2022/02/14 08:37:53;;;;;;;;;;;;;;;8.29;53.88;101759.96;117397;1185;23531;-56
2022/02/14 08:40:21;;;;;;;;;;;;;;;8.40;53.93;101756.16;117368;1185;24113;-55
2022/02/14 08:42:51;;;;;;;;;;;;;;;8.48;53.75;101759.48;117508;1185;22894;-55
2022/02/14 08:45:20;;;;;;;;;;;;;;;8.59;53.97;101761.08;117429;1185;23509;-56
2022/02/14 08:47:49;;;;;;;;;;;;;;;8.74;53.87;101759.42;117415;1186;21838;-57
2022/02/14 08:50:19;;;;;;;;;;;;;;;8.88;53.91;101755.10;117318;1182;24127;-55
2022/02/14 08:52:47;;;;;;;;;;;;;;;9.01;53.86;101755.85;117396;1184;23365;-57
2022/02/14 08:55:15;;;;;;;;;;;;;;;9.10;53.72;101755.30;117395;1185;23407;-55
2022/02/14 08:57:46;;;;;;;;;;;;;;;9.11;53.65;101755.30;117403;1182;22611;-55
2022/02/14 09:00:15;;;;;;;;;;;;;;;9.17;53.72;101752.95;117362;1182;21911;-55
2022/02/14 09:02:44;;;;;;;;;;;;;;;9.27;53.55;101752.56;117390;1185;23281;-55
2022/02/14 09:05:16;;;;;;;;;;;;;;;9.21;53.35;101744.77;117332;1185;24194;-55
2022/02/14 09:07:44;;;;;;;;;;;;;;;9.22;53.55;101744.09;117340;1185;24133;-55
2022/02/14 09:10:12;;;;;;;;;;;;;;;9.34;53.67;101741.27;117357;1186;21843;-55
2022/02/14 09:12:41;;;;;;;;;;;;;;;9.50;53.68;101737.84;117368;1185;23416;-55
2022/02/14 09:15:10;;;;;;;;;;;;;;;9.67;53.79;101735.27;119456;1176;21846;-57
2022/02/14 09:17:38;;;;;;;;;;;;;;;9.82;53.76;101725.98;118988;1185;22821;-56
2022/02/14 09:20:06;;;;;;;;;;;;;;;10.00;53.75;101724.10;117429;1176;21836;-55
2022/02/14 09:22:35;;;;;;;;;;;;;;;10.24;53.88;101722.24;117386;1186;21838;-56
2022/02/14 09:25:03;;;;;;;;;;;;;;;10.43;53.89;101720.54;117320;1185;21844;-55
2022/02/14 09:27:32;;;;;;;;;;;;;;;10.63;53.90;101716.19;117429;1185;22984;-56
2022/02/14 09:30:02;;;;;;;;;;;;;;;10.80;53.74;101713.16;117439;1185;22912;-57
2022/02/14 09:32:31;;;;;;;;;;;;;;;10.93;53.68;101706.06;117440;1183;21944;-55
2022/02/14 09:35:00;;;;;;;;;;;;;;;11.06;53.52;101705.63;117344;1185;23468;-55
2022/02/14 09:37:28;;;;;;;;;;;;;;;11.09;52.96;101704.23;117377;1185;21839;-57
2022/02/14 09:40:00;;;;;;;;;;;;;;;10.93;52.74;101708.16;117315;1186;23449;-57
2022/02/14 09:42:28;;;;;;;;;;;;;;;10.74;52.67;101703.45;117396;1185;23439;-56
2022/02/14 09:44:57;;;;;;;;;;;;;;;10.58;52.73;101699.11;117441;1182;23439;-56
2022/02/14 09:47:25;;;;;;;;;;;;;;;10.44;52.68;101702.83;117429;1183;22619;-57
2022/02/14 09:49:54;;;;;;;;;;;;;;;10.51;53.04;101697.29;117449;1185;23401;-56
2022/02/14 09:52:23;;;;;;;;;;;;;;;10.48;52.68;101688.65;117397;1185;21837;-57
2022/02/14 09:54:51;;;;;;;;;;;;;;;10.41;52.75;101686.65;117429;1186;23429;-57
2022/02/14 09:57:19;;;;;;;;;;;;;;;10.55;53.00;101681.70;117431;1185;24111;-59
2022/02/14 09:59:47;;;;;;;;;;;;;;;10.79;53.31;101677.50;117379;1183;24152;-57
2022/02/14 10:02:24;;;;;;;;;;;;;;;11.06;53.30;101675.77;117417;1185;23538;-59
2022/02/14 10:05:02;;;;;;;;;;;;;;;11.23;53.08;101670.25;117397;1182;23426;-56
2022/02/14 10:07:49;;;;;;;;;;;;;;;11.19;52.47;101667.58;117402;1182;23436;-59
2022/02/14 10:10:18;;;;;;;;;;;;;;;11.31;53.07;101659.05;117389;1185;21855;-55
2022/02/14 10:12:51;;;;;;;;;;;;;;;11.52;52.83;101655.09;117422;1183;22912;-55
2022/02/14 10:15:19;;;;;;;;;;;;;;;11.54;52.76;101650.19;117356;1185;21836;-60
2022/02/14 10:17:47;;;;;;;;;;;;;;;11.63;52.71;101645.65;117392;1183;21847;-56
2022/02/14 10:20:26;;;;;;;;;;;;;;;11.84;52.87;101645.71;117466;1183;21829;-56
2022/02/14 10:22:58;;;;;;;;;;;;;;;12.10;52.98;101639.46;117437;1186;23531;-56
2022/02/14 10:25:30;;;;;;;;;;;;;;;12.06;52.27;101639.83;117374;1185;21839;-59
2022/02/14 10:28:18;;;;;;;;;;;;;;;11.96;52.36;101636.23;117361;1189;21832;-59
2022/02/14 10:31:03;;;;;;;;;;;;;;;12.05;52.36;101629.78;117330;1185;22918;-56
2022/02/14 10:33:52;;;;;;;;;;;;;;;12.25;52.67;101629.63;117330;1183;23614;-56
2022/02/14 10:36:33;;;;;;;;;;;;;;;12.52;52.81;101624.53;117320;1185;22614;-56
2022/02/14 10:39:32;;;;;;;;;;;;;;;12.76;52.65;101622.21;117370;1185;22908;-56
2022/02/14 10:42:03;;;;;;;;;;;;;;;12.94;52.69;101625.17;117060;1189;21846;-58
2022/02/14 10:47:24;;;;;;;;;;;;;;;13.35;52.49;101609.36;117023;1179;21842;-58
2022/02/14 10:50:01;;;;;;;;;;;;;;;13.46;52.47;101602.47;117006;1186;23882;-56
2022/02/14 10:52:40;;;;;;;;;;;;;;;13.68;52.22;101603.08;116971;1185;23542;-59
2022/02/14 10:55:10;;;;;;;;;;;;;;;13.69;52.08;101598.66;116936;1188;21839;-59
2022/02/14 10:57:39;;;;;;;;;;;;;;;13.76;52.22;101597.73;119073;1186;21805;-59
2022/02/14 11:00:08;;;;;;;;;;;;;;;13.87;52.24;101594.84;117067;1186;22932;-58
2022/02/14 11:02:37;;;;;;;;;;;;;;;14.04;52.08;101589.25;117120;1185;23428;-59
2022/02/14 11:05:06;;;;;;;;;;;;;;;14.20;52.26;101587.89;117089;1186;23515;-58
2022/02/14 11:07:35;;;;;;;;;;;;;;;14.29;52.28;101582.87;117030;1186;23298;-56
2022/02/14 11:10:03;;;;;;;;;;;;;;;14.31;51.80;101577.56;117043;1186;22992;-59
2022/02/14 11:12:34;;;;;;;;;;;;;;;14.30;51.86;101579.16;117094;1188;21846;-57
2022/02/14 11:15:03;;;;;;;;;;;;;;;14.25;51.69;101573.38;116975;1185;24140;-57
2022/02/14 11:17:38;;;;;;;;;;;;;;;14.25;51.72;101571.26;116959;1188;23524;-58
2022/02/14 11:20:07;;;;;;;;;;;;;;;14.35;51.91;101564.29;117280;1185;23827;-56
2022/02/14 11:22:37;;;;;;;;;;;;;;;14.51;52.00;101565.20;117460;1182;24172;-59
2022/02/14 11:25:09;;;;;;;;;;;;;;;14.59;51.68;101561.05;117303;1185;21844;-57
2022/02/14 11:27:58;;;;;;;;;;;;;;;14.43;51.01;101557.50;117350;1185;24131;-57
2022/02/14 11:30:29;;;;;;;;;;;;;;;14.22;50.88;101554.86;117354;1185;21879;-57
2022/02/14 11:33:09;;;;;;;;;;;;;;;14.26;51.30;101547.96;117387;1182;24141;-59
2022/02/14 11:35:38;;;;;;;;;;;;;;;14.33;51.07;101549.48;117341;1185;21847;-58
2022/02/14 11:38:06;;;;;;;;;;;;;;;14.11;49.87;101545.25;117384;1185;23416;-59
2022/02/14 11:40:41;;;;;;;;;;;;;;;13.61;49.83;101542.96;117347;1183;23627;-58
2022/02/14 11:43:18;;;;;;;;;;;;;;;13.35;50.30;101541.14;117327;1186;21842;-56
2022/02/14 11:46:05;;;;;;;;;;;;;;;13.53;50.94;101536.30;117358;1185;24134;-59
2022/02/14 11:48:34;;;;;;;;;;;;;;;13.83;51.24;101536.81;117374;1186;21840;-57
2022/02/14 11:51:12;;;;;;;;;;;;;;;14.02;51.22;101528.55;117495;1185;22569;-59
2022/02/14 11:53:42;;;;;;;;;;;;;;;14.25;51.19;101528.52;117345;1183;24117;-57
2022/02/14 11:56:22;;;;;;;;;;;;;;;14.39;50.86;101523.45;117316;1185;23560;-57
2022/02/14 11:59:01;;;;;;;;;;;;;;;14.47;50.87;101520.92;117338;1185;22982;-57
2022/02/14 12:01:30;;;;;;;;;;;;;;;14.60;50.91;101514.77;117460;1185;22911;-57
2022/02/14 12:04:16;;;;;;;;;;;;;;;14.76;51.03;101514.27;117389;1182;21842;-57
2022/02/14 12:07:03;;;;;;;;;;;;;;;14.92;50.91;101509.14;117304;1185;23780;-58
2022/02/14 12:09:49;;;;;;;;;;;;;;;15.03;50.75;101507.22;119163;1185;24136;-59
2022/02/14 12:12:17;;;;;;;;;;;;;;;15.15;50.80;101501.95;118678;1186;24155;-57
2022/02/14 12:14:45;;;;;;;;;;;;;;;15.24;50.78;101502.52;117392;1185;21844;-59
2022/02/14 12:20:36;;;;;;;;;;;;;;;15.36;50.63;101493.17;117468;1182;23443;-56
2022/02/14 12:23:04;;;;;;;;;;;;;;;15.41;50.48;101492.93;117391;1182;24113;-59
2022/02/14 12:25:33;;;;;;;;;;;;;;;15.42;50.28;101493.98;117411;1182;23540;-59
2022/02/14 12:28:05;;;;;;;;;;;;;;;15.37;50.27;101485.02;117407;1186;21937;-57
2022/02/14 12:30:33;;;;;;;;;;;;;;;15.40;50.38;101484.98;117539;1183;23474;-58
2022/02/14 12:33:08;;;;;;;;;;;;;;;15.48;50.39;101484.67;117359;1182;23903;-57
2022/02/14 12:35:39;;;;;;;;;;;;;;;15.52;50.24;101483.03;117449;1185;22973;-57
2022/02/14 12:38:08;;;;;;;;;;;;;;;15.52;50.28;101481.26;117375;1183;23551;-57
2022/02/14 12:40:51;;;;;;;;;;;;;;;15.54;50.12;101481.06;117358;1185;21837;-57
2022/02/14 12:43:22;;;;;;;;;;;;;;;15.52;50.06;101478.25;117484;1185;21989;-57
2022/02/14 12:45:50;;;;;;;;;;;;;;;15.40;49.58;101476.84;117401;1185;22093;-57
2022/02/14 12:48:33;;;;;;;;;;;;;;;15.11;49.33;101473.18;117379;1185;21843;-58